sensor_id;sensor_type;location;lat;lon;timestamp;temperature;humidity
66013;DHT22;52783;50.502;8.190;2023-02-23T00:01:36;8.50;99.90
66013;DHT22;52783;50.502;8.190;2023-02-23T00:04:02;8.50;99.90
66013;DHT22;52783;50.502;8.190;2023-02-23T00:06:29;8.60;99.90
66013;DHT22;52783;50.502;8.190;2023-02-23T00:08:55;8.60;99.90
66013;DHT22;52783;50.502;8.190;2023-02-23T00:11:22;8.60;99.90
66013;DHT22;52783;50.502;8.190;2023-02-23T00:13:49;8.70;99.90
66013;DHT22;52783;50.502;8.190;2023-02-23T00:16:20;8.70;99.90
66013;DHT22;52783;50.502;8.190;2023-02-23T00:18:49;8.80;99.90
66013;DHT22;52783;50.502;8.190;2023-02-23T00:21:18;8.80;99.90
66013;DHT22;52783;50.502;8.190;2023-02-23T00:23:50;8.80;99.90
66013;DHT22;52783;50.502;8.190;2023-02-23T00:26:17;8.80;99.90
66013;DHT22;52783;50.502;8.190;2023-02-23T00:28:46;8.80;99.90
66013;DHT22;52783;50.502;8.190;2023-02-23T00:31:12;8.80;99.90
66013;DHT22;52783;50.502;8.190;2023-02-23T00:33:38;8.80;99.90
66013;DHT22;52783;50.502;8.190;2023-02-23T00:36:12;8.90;99.90
66013;DHT22;52783;50.502;8.190;2023-02-23T00:38:40;8.90;99.90
66013;DHT22;52783;50.502;8.190;2023-02-23T00:41:10;8.90;99.90
66013;DHT22;52783;50.502;8.190;2023-02-23T00:43:38;8.90;99.90
66013;DHT22;52783;50.502;8.190;2023-02-23T00:46:04;8.90;99.90
66013;DHT22;52783;50.502;8.190;2023-02-23T00:48:32;8.90;99.90
66013;DHT22;52783;50.502;8.190;2023-02-23T00:51:02;8.90;99.90
66013;DHT22;52783;50.502;8.190;2023-02-23T00:53:28;8.90;99.90
66013;DHT22;52783;50.502;8.190;2023-02-23T00:55:54;8.90;99.90
66013;DHT22;52783;50.502;8.190;2023-02-23T00:58:21;9.00;99.90
66013;DHT22;52783;50.502;8.190;2023-02-23T01:00:46;9.00;99.90
66013;DHT22;52783;50.502;8.190;2023-02-23T01:03:12;9.00;99.90
66013;DHT22;52783;50.502;8.190;2023-02-23T01:05:37;9.00;99.90
66013;DHT22;52783;50.502;8.190;2023-02-23T01:08:03;9.00;99.90
66013;DHT22;52783;50.502;8.190;2023-02-23T01:10:34;9.00;99.90
66013;DHT22;52783;50.502;8.190;2023-02-23T01:13:03;9.00;99.90
66013;DHT22;52783;50.502;8.190;2023-02-23T01:15:30;9.00;99.90
66013;DHT22;52783;50.502;8.190;2023-02-23T01:17:57;9.00;99.90
66013;DHT22;52783;50.502;8.190;2023-02-23T01:20:22;9.00;99.90
66013;DHT22;52783;50.502;8.190;2023-02-23T01:22:50;9.00;99.90
66013;DHT22;52783;50.502;8.190;2023-02-23T01:25:18;9.00;99.90
66013;DHT22;52783;50.502;8.190;2023-02-23T01:27:44;9.00;99.90
66013;DHT22;52783;50.502;8.190;2023-02-23T01:30:12;9.00;99.90
66013;DHT22;52783;50.502;8.190;2023-02-23T01:32:39;9.00;99.90
66013;DHT22;52783;50.502;8.190;2023-02-23T01:35:08;9.00;99.90
66013;DHT22;52783;50.502;8.190;2023-02-23T01:37:35;9.10;99.90
66013;DHT22;52783;50.502;8.190;2023-02-23T01:40:01;9.10;99.90
66013;DHT22;52783;50.502;8.190;2023-02-23T01:42:37;9.10;99.90
66013;DHT22;52783;50.502;8.190;2023-02-23T01:45:23;9.10;99.90
66013;DHT22;52783;50.502;8.190;2023-02-23T01:47:51;9.10;99.90
66013;DHT22;52783;50.502;8.190;2023-02-23T01:50:17;9.20;99.90
66013;DHT22;52783;50.502;8.190;2023-02-23T01:52:45;9.10;99.90
66013;DHT22;52783;50.502;8.190;2023-02-23T01:55:12;9.00;99.90
66013;DHT22;52783;50.502;8.190;2023-02-23T01:57:39;9.10;99.90
66013;DHT22;52783;50.502;8.190;2023-02-23T02:00:07;9.10;99.90
66013;DHT22;52783;50.502;8.190;2023-02-23T02:02:39;8.90;99.90
66013;DHT22;52783;50.502;8.190;2023-02-23T02:05:06;8.90;99.90
66013;DHT22;52783;50.502;8.190;2023-02-23T02:07:38;9.00;99.90
66013;DHT22;52783;50.502;8.190;2023-02-23T02:10:06;9.00;99.90
66013;DHT22;52783;50.502;8.190;2023-02-23T02:12:35;9.00;99.90
66013;DHT22;52783;50.502;8.190;2023-02-23T02:15:02;8.90;99.90
66013;DHT22;52783;50.502;8.190;2023-02-23T02:17:59;8.90;99.90
66013;DHT22;52783;50.502;8.190;2023-02-23T02:26:21;8.90;99.90
66013;DHT22;52783;50.502;8.190;2023-02-23T02:37:40;8.90;99.90
66013;DHT22;52783;50.502;8.190;2023-02-23T02:46:22;8.80;99.90
66013;DHT22;52783;50.502;8.190;2023-02-23T02:49:11;8.80;99.90
66013;DHT22;52783;50.502;8.190;2023-02-23T02:54:30;8.80;99.90
66013;DHT22;52783;50.502;8.190;2023-02-23T02:56:59;8.80;99.90
66013;DHT22;52783;50.502;8.190;2023-02-23T02:59:26;8.90;99.90
66013;DHT22;52783;50.502;8.190;2023-02-23T03:02:16;8.90;99.90
66013;DHT22;52783;50.502;8.190;2023-02-23T03:05:01;8.90;99.90
66013;DHT22;52783;50.502;8.190;2023-02-23T03:11:09;8.90;99.90
66013;DHT22;52783;50.502;8.190;2023-02-23T03:14:10;8.90;99.90
66013;DHT22;52783;50.502;8.190;2023-02-23T03:20:25;8.80;99.90
66013;DHT22;52783;50.502;8.190;2023-02-23T03:23:21;8.80;99.90
66013;DHT22;52783;50.502;8.190;2023-02-23T03:26:20;8.80;99.90
66013;DHT22;52783;50.502;8.190;2023-02-23T03:29:18;8.80;99.90
66013;DHT22;52783;50.502;8.190;2023-02-23T03:32:21;8.80;99.90
66013;DHT22;52783;50.502;8.190;2023-02-23T03:38:09;8.80;99.90
66013;DHT22;52783;50.502;8.190;2023-02-23T03:40:55;8.80;99.90
66013;DHT22;52783;50.502;8.190;2023-02-23T03:43:54;8.80;99.90
66013;DHT22;52783;50.502;8.190;2023-02-23T03:46:40;8.80;99.90
66013;DHT22;52783;50.502;8.190;2023-02-23T03:49:28;8.80;99.90
66013;DHT22;52783;50.502;8.190;2023-02-23T03:52:23;8.80;99.90
66013;DHT22;52783;50.502;8.190;2023-02-23T03:55:14;8.80;99.90
66013;DHT22;52783;50.502;8.190;2023-02-23T03:58:00;8.80;99.90
66013;DHT22;52783;50.502;8.190;2023-02-23T04:00:47;8.80;99.90
66013;DHT22;52783;50.502;8.190;2023-02-23T04:03:35;8.90;99.90
66013;DHT22;52783;50.502;8.190;2023-02-23T04:06:24;8.90;99.90
66013;DHT22;52783;50.502;8.190;2023-02-23T04:09:09;8.90;99.90
66013;DHT22;52783;50.502;8.190;2023-02-23T04:12:05;8.90;99.90
66013;DHT22;52783;50.502;8.190;2023-02-23T04:14:53;9.00;99.90
66013;DHT22;52783;50.502;8.190;2023-02-23T04:17:23;9.00;99.90
66013;DHT22;52783;50.502;8.190;2023-02-23T04:19:52;9.00;99.90
66013;DHT22;52783;50.502;8.190;2023-02-23T04:22:18;9.00;99.90
66013;DHT22;52783;50.502;8.190;2023-02-23T04:24:43;9.00;99.90
66013;DHT22;52783;50.502;8.190;2023-02-23T04:27:10;9.00;99.90
66013;DHT22;52783;50.502;8.190;2023-02-23T04:29:36;9.10;99.90
66013;DHT22;52783;50.502;8.190;2023-02-23T04:32:01;9.10;99.90
66013;DHT22;52783;50.502;8.190;2023-02-23T04:34:27;9.10;99.90
66013;DHT22;52783;50.502;8.190;2023-02-23T04:36:52;9.10;99.90
66013;DHT22;52783;50.502;8.190;2023-02-23T04:39:18;9.10;99.90
66013;DHT22;52783;50.502;8.190;2023-02-23T04:41:43;9.00;99.90
66013;DHT22;52783;50.502;8.190;2023-02-23T04:44:09;9.00;99.90
66013;DHT22;52783;50.502;8.190;2023-02-23T04:46:34;9.10;99.90
66013;DHT22;52783;50.502;8.190;2023-02-23T04:49:00;9.10;99.90
66013;DHT22;52783;50.502;8.190;2023-02-23T04:51:26;9.10;99.90
66013;DHT22;52783;50.502;8.190;2023-02-23T04:53:56;9.10;99.90
66013;DHT22;52783;50.502;8.190;2023-02-23T04:56:22;9.10;99.90
66013;DHT22;52783;50.502;8.190;2023-02-23T04:58:47;9.10;99.90
66013;DHT22;52783;50.502;8.190;2023-02-23T05:01:13;9.10;99.90
66013;DHT22;52783;50.502;8.190;2023-02-23T05:03:38;9.10;99.90
66013;DHT22;52783;50.502;8.190;2023-02-23T05:06:04;9.20;99.90
66013;DHT22;52783;50.502;8.190;2023-02-23T05:08:30;9.10;99.90
66013;DHT22;52783;50.502;8.190;2023-02-23T05:10:55;9.10;99.90
66013;DHT22;52783;50.502;8.190;2023-02-23T05:13:21;9.10;99.90
66013;DHT22;52783;50.502;8.190;2023-02-23T05:15:46;9.20;99.90
66013;DHT22;52783;50.502;8.190;2023-02-23T05:18:12;9.20;99.90
66013;DHT22;52783;50.502;8.190;2023-02-23T05:20:37;9.10;99.90
66013;DHT22;52783;50.502;8.190;2023-02-23T05:23:06;9.20;99.90
66013;DHT22;52783;50.502;8.190;2023-02-23T05:25:31;9.10;99.90
66013;DHT22;52783;50.502;8.190;2023-02-23T05:27:57;9.10;99.90
66013;DHT22;52783;50.502;8.190;2023-02-23T05:30:23;9.00;99.90
66013;DHT22;52783;50.502;8.190;2023-02-23T05:32:49;9.10;99.90
66013;DHT22;52783;50.502;8.190;2023-02-23T05:35:15;9.00;99.90
66013;DHT22;52783;50.502;8.190;2023-02-23T05:37:41;9.00;99.90
66013;DHT22;52783;50.502;8.190;2023-02-23T05:40:07;9.10;99.90
66013;DHT22;52783;50.502;8.190;2023-02-23T05:42:32;9.10;99.90
66013;DHT22;52783;50.502;8.190;2023-02-23T05:44:58;9.00;99.90
66013;DHT22;52783;50.502;8.190;2023-02-23T05:47:24;9.00;99.90
66013;DHT22;52783;50.502;8.190;2023-02-23T05:49:49;9.00;99.90
66013;DHT22;52783;50.502;8.190;2023-02-23T05:52:15;9.00;99.90
66013;DHT22;52783;50.502;8.190;2023-02-23T05:54:40;9.00;99.90
66013;DHT22;52783;50.502;8.190;2023-02-23T05:57:06;9.10;99.90
66013;DHT22;52783;50.502;8.190;2023-02-23T05:59:32;9.00;99.90
66013;DHT22;52783;50.502;8.190;2023-02-23T06:01:58;9.00;99.90
66013;DHT22;52783;50.502;8.190;2023-02-23T06:04:23;9.00;99.90
66013;DHT22;52783;50.502;8.190;2023-02-23T06:06:49;9.00;99.90
66013;DHT22;52783;50.502;8.190;2023-02-23T06:09:14;9.00;99.90
66013;DHT22;52783;50.502;8.190;2023-02-23T06:11:40;9.00;99.90
66013;DHT22;52783;50.502;8.190;2023-02-23T06:14:05;8.90;99.90
66013;DHT22;52783;50.502;8.190;2023-02-23T06:16:31;8.90;99.90
66013;DHT22;52783;50.502;8.190;2023-02-23T06:18:56;9.00;99.90
66013;DHT22;52783;50.502;8.190;2023-02-23T06:21:22;9.00;99.90
66013;DHT22;52783;50.502;8.190;2023-02-23T06:23:47;9.10;99.90
66013;DHT22;52783;50.502;8.190;2023-02-23T06:26:13;9.10;99.90
66013;DHT22;52783;50.502;8.190;2023-02-23T06:28:38;9.10;99.90
66013;DHT22;52783;50.502;8.190;2023-02-23T06:31:04;9.10;99.90
66013;DHT22;52783;50.502;8.190;2023-02-23T06:33:30;9.10;99.90
66013;DHT22;52783;50.502;8.190;2023-02-23T06:35:56;9.10;99.90
66013;DHT22;52783;50.502;8.190;2023-02-23T06:38:21;9.10;99.90
66013;DHT22;52783;50.502;8.190;2023-02-23T06:40:48;9.10;99.90
66013;DHT22;52783;50.502;8.190;2023-02-23T06:43:13;9.10;99.90
66013;DHT22;52783;50.502;8.190;2023-02-23T06:45:39;9.10;99.90
66013;DHT22;52783;50.502;8.190;2023-02-23T06:48:05;9.20;99.90
66013;DHT22;52783;50.502;8.190;2023-02-23T06:50:31;9.20;99.90
66013;DHT22;52783;50.502;8.190;2023-02-23T06:52:57;9.20;99.90
66013;DHT22;52783;50.502;8.190;2023-02-23T06:55:23;9.20;99.90
66013;DHT22;52783;50.502;8.190;2023-02-23T06:57:49;9.30;99.90
66013;DHT22;52783;50.502;8.190;2023-02-23T07:00:16;9.30;99.90
66013;DHT22;52783;50.502;8.190;2023-02-23T07:02:42;9.30;99.90
66013;DHT22;52783;50.502;8.190;2023-02-23T07:05:09;9.30;99.90
66013;DHT22;52783;50.502;8.190;2023-02-23T07:07:35;9.30;99.90
66013;DHT22;52783;50.502;8.190;2023-02-23T07:10:00;9.30;99.90
66013;DHT22;52783;50.502;8.190;2023-02-23T07:12:26;9.30;99.90
66013;DHT22;52783;50.502;8.190;2023-02-23T07:14:51;9.40;99.90
66013;DHT22;52783;50.502;8.190;2023-02-23T07:17:17;9.30;99.90
66013;DHT22;52783;50.502;8.190;2023-02-23T07:19:43;9.30;99.90
66013;DHT22;52783;50.502;8.190;2023-02-23T07:22:08;9.30;99.90
66013;DHT22;52783;50.502;8.190;2023-02-23T07:24:34;9.30;99.90
66013;DHT22;52783;50.502;8.190;2023-02-23T07:26:59;9.40;99.90
66013;DHT22;52783;50.502;8.190;2023-02-23T07:29:25;9.40;99.90
66013;DHT22;52783;50.502;8.190;2023-02-23T07:31:52;9.40;99.90
66013;DHT22;52783;50.502;8.190;2023-02-23T07:34:17;9.40;99.90
66013;DHT22;52783;50.502;8.190;2023-02-23T07:36:43;9.40;99.90
66013;DHT22;52783;50.502;8.190;2023-02-23T07:39:08;9.50;99.90
66013;DHT22;52783;50.502;8.190;2023-02-23T07:41:34;9.60;99.90
66013;DHT22;52783;50.502;8.190;2023-02-23T07:43:59;9.50;99.90
66013;DHT22;52783;50.502;8.190;2023-02-23T07:46:25;9.50;99.90
66013;DHT22;52783;50.502;8.190;2023-02-23T07:48:51;9.50;99.90
66013;DHT22;52783;50.502;8.190;2023-02-23T07:51:16;9.50;99.90
66013;DHT22;52783;50.502;8.190;2023-02-23T07:53:42;9.50;99.90
66013;DHT22;52783;50.502;8.190;2023-02-23T07:56:10;9.40;99.90
66013;DHT22;52783;50.502;8.190;2023-02-23T07:58:40;9.50;99.90
66013;DHT22;52783;50.502;8.190;2023-02-23T08:01:06;9.50;99.90
66013;DHT22;52783;50.502;8.190;2023-02-23T08:03:32;9.40;99.90
66013;DHT22;52783;50.502;8.190;2023-02-23T08:05:58;9.40;99.90
66013;DHT22;52783;50.502;8.190;2023-02-23T08:08:23;9.40;99.90
66013;DHT22;52783;50.502;8.190;2023-02-23T08:10:49;9.40;99.90
66013;DHT22;52783;50.502;8.190;2023-02-23T08:13:15;9.40;99.90
66013;DHT22;52783;50.502;8.190;2023-02-23T08:15:42;9.50;99.90
66013;DHT22;52783;50.502;8.190;2023-02-23T08:18:08;9.50;99.90
66013;DHT22;52783;50.502;8.190;2023-02-23T08:20:34;9.50;99.90
66013;DHT22;52783;50.502;8.190;2023-02-23T08:22:59;9.60;99.90
66013;DHT22;52783;50.502;8.190;2023-02-23T08:25:25;9.60;99.90
66013;DHT22;52783;50.502;8.190;2023-02-23T08:27:53;9.50;99.90
66013;DHT22;52783;50.502;8.190;2023-02-23T08:30:23;9.60;99.90
66013;DHT22;52783;50.502;8.190;2023-02-23T08:32:49;9.60;99.90
66013;DHT22;52783;50.502;8.190;2023-02-23T08:35:15;9.50;99.90
66013;DHT22;52783;50.502;8.190;2023-02-23T08:37:43;9.50;99.90
66013;DHT22;52783;50.502;8.190;2023-02-23T08:40:10;9.60;99.90
66013;DHT22;52783;50.502;8.190;2023-02-23T08:42:36;9.60;99.90
66013;DHT22;52783;50.502;8.190;2023-02-23T08:45:02;9.70;99.90
66013;DHT22;52783;50.502;8.190;2023-02-23T08:47:28;9.60;99.90
66013;DHT22;52783;50.502;8.190;2023-02-23T08:49:54;9.70;99.90
66013;DHT22;52783;50.502;8.190;2023-02-23T08:52:19;9.80;99.90
66013;DHT22;52783;50.502;8.190;2023-02-23T08:54:45;9.80;99.90
66013;DHT22;52783;50.502;8.190;2023-02-23T08:57:11;9.80;99.90
66013;DHT22;52783;50.502;8.190;2023-02-23T08:59:37;9.90;99.90
66013;DHT22;52783;50.502;8.190;2023-02-23T09:02:04;9.80;99.90
66013;DHT22;52783;50.502;8.190;2023-02-23T09:04:33;9.90;99.90
66013;DHT22;52783;50.502;8.190;2023-02-23T09:07:00;10.00;99.90
66013;DHT22;52783;50.502;8.190;2023-02-23T09:09:26;10.10;99.90
66013;DHT22;52783;50.502;8.190;2023-02-23T09:11:51;10.20;99.90
66013;DHT22;52783;50.502;8.190;2023-02-23T09:14:18;10.10;99.90
66013;DHT22;52783;50.502;8.190;2023-02-23T09:16:43;10.20;99.90
66013;DHT22;52783;50.502;8.190;2023-02-23T09:19:09;10.20;99.90
66013;DHT22;52783;50.502;8.190;2023-02-23T09:21:35;10.20;99.90
66013;DHT22;52783;50.502;8.190;2023-02-23T09:24:01;10.30;99.90
66013;DHT22;52783;50.502;8.190;2023-02-23T09:26:26;10.40;99.90
66013;DHT22;52783;50.502;8.190;2023-02-23T09:28:54;10.50;99.90
66013;DHT22;52783;50.502;8.190;2023-02-23T09:31:21;10.40;99.90
66013;DHT22;52783;50.502;8.190;2023-02-23T09:33:47;10.60;99.90
66013;DHT22;52783;50.502;8.190;2023-02-23T09:36:16;10.60;99.90
66013;DHT22;52783;50.502;8.190;2023-02-23T09:38:43;10.60;99.90
66013;DHT22;52783;50.502;8.190;2023-02-23T09:47:09;10.70;99.90
66013;DHT22;52783;50.502;8.190;2023-02-23T09:49:40;10.80;99.90
66013;DHT22;52783;50.502;8.190;2023-02-23T09:52:14;10.90;99.90
66013;DHT22;52783;50.502;8.190;2023-02-23T09:54:40;10.80;99.90
66013;DHT22;52783;50.502;8.190;2023-02-23T09:57:13;11.00;99.90
66013;DHT22;52783;50.502;8.190;2023-02-23T09:59:39;11.00;99.90
66013;DHT22;52783;50.502;8.190;2023-02-23T10:02:37;11.00;99.90
66013;DHT22;52783;50.502;8.190;2023-02-23T10:05:07;10.90;99.90
66013;DHT22;52783;50.502;8.190;2023-02-23T10:08:01;10.90;99.90
66013;DHT22;52783;50.502;8.190;2023-02-23T10:10:43;10.70;99.90
66013;DHT22;52783;50.502;8.190;2023-02-23T10:13:24;10.70;99.90
66013;DHT22;52783;50.502;8.190;2023-02-23T10:15:59;10.60;99.90
66013;DHT22;52783;50.502;8.190;2023-02-23T10:26:43;10.90;99.90
66013;DHT22;52783;50.502;8.190;2023-02-23T10:31:51;11.30;99.90
66013;DHT22;52783;50.502;8.190;2023-02-23T10:34:18;11.50;99.90
66013;DHT22;52783;50.502;8.190;2023-02-23T10:37:00;11.50;99.90
66013;DHT22;52783;50.502;8.190;2023-02-23T10:39:26;11.70;99.90
66013;DHT22;52783;50.502;8.190;2023-02-23T10:41:52;11.70;99.90
66013;DHT22;52783;50.502;8.190;2023-02-23T10:44:23;11.60;99.90
66013;DHT22;52783;50.502;8.190;2023-02-23T10:46:59;11.50;99.90
66013;DHT22;52783;50.502;8.190;2023-02-23T10:49:34;11.40;99.90
66013;DHT22;52783;50.502;8.190;2023-02-23T10:52:03;11.30;99.90
66013;DHT22;52783;50.502;8.190;2023-02-23T10:54:52;11.10;99.90
66013;DHT22;52783;50.502;8.190;2023-02-23T10:57:24;10.90;99.90
66013;DHT22;52783;50.502;8.190;2023-02-23T11:02:23;11.00;99.90
66013;DHT22;52783;50.502;8.190;2023-02-23T11:04:52;11.10;99.90
66013;DHT22;52783;50.502;8.190;2023-02-23T11:07:24;11.10;99.90
66013;DHT22;52783;50.502;8.190;2023-02-23T11:09:56;11.10;99.90
66013;DHT22;52783;50.502;8.190;2023-02-23T11:12:37;10.90;99.90
66013;DHT22;52783;50.502;8.190;2023-02-23T11:18:01;11.20;99.90
66013;DHT22;52783;50.502;8.190;2023-02-23T11:20:35;11.20;99.90
66013;DHT22;52783;50.502;8.190;2023-02-23T11:23:16;11.20;99.90
66013;DHT22;52783;50.502;8.190;2023-02-23T11:25:44;11.20;99.90
66013;DHT22;52783;50.502;8.190;2023-02-23T11:28:32;11.30;99.90
66013;DHT22;52783;50.502;8.190;2023-02-23T11:31:03;11.10;99.90
66013;DHT22;52783;50.502;8.190;2023-02-23T11:33:33;10.90;99.90
66013;DHT22;52783;50.502;8.190;2023-02-23T11:36:33;10.90;99.90
66013;DHT22;52783;50.502;8.190;2023-02-23T11:39:13;10.90;99.90
66013;DHT22;52783;50.502;8.190;2023-02-23T11:41:42;10.90;99.90
66013;DHT22;52783;50.502;8.190;2023-02-23T11:44:21;11.10;99.90
66013;DHT22;52783;50.502;8.190;2023-02-23T11:46:49;11.20;99.90
66013;DHT22;52783;50.502;8.190;2023-02-23T11:49:33;11.30;99.90
66013;DHT22;52783;50.502;8.190;2023-02-23T11:52:00;11.40;99.90
66013;DHT22;52783;50.502;8.190;2023-02-23T11:54:29;11.40;99.90
66013;DHT22;52783;50.502;8.190;2023-02-23T11:56:55;11.20;99.90
66013;DHT22;52783;50.502;8.190;2023-02-23T11:59:34;11.20;99.90
66013;DHT22;52783;50.502;8.190;2023-02-23T12:02:19;11.10;99.90
66013;DHT22;52783;50.502;8.190;2023-02-23T12:04:47;10.90;99.90
66013;DHT22;52783;50.502;8.190;2023-02-23T12:07:28;10.90;99.90
66013;DHT22;52783;50.502;8.190;2023-02-23T12:10:22;10.70;99.90
66013;DHT22;52783;50.502;8.190;2023-02-23T12:13:01;10.60;99.90
66013;DHT22;52783;50.502;8.190;2023-02-23T12:15:46;10.50;99.90
66013;DHT22;52783;50.502;8.190;2023-02-23T12:21:02;10.30;99.90
66013;DHT22;52783;50.502;8.190;2023-02-23T12:23:30;10.20;99.90
66013;DHT22;52783;50.502;8.190;2023-02-23T12:26:08;10.20;99.90
66013;DHT22;52783;50.502;8.190;2023-02-23T12:28:56;10.10;99.90
66013;DHT22;52783;50.502;8.190;2023-02-23T12:31:37;10.10;99.90
66013;DHT22;52783;50.502;8.190;2023-02-23T12:37:23;10.20;99.90
66013;DHT22;52783;50.502;8.190;2023-02-23T12:39:56;10.40;99.90
66013;DHT22;52783;50.502;8.190;2023-02-23T12:42:46;10.50;99.90
66013;DHT22;52783;50.502;8.190;2023-02-23T12:45:24;10.60;99.90
66013;DHT22;52783;50.502;8.190;2023-02-23T12:49:04;10.70;99.90
66013;DHT22;52783;50.502;8.190;2023-02-23T12:50:58;11.00;99.90
66013;DHT22;52783;50.502;8.190;2023-02-23T12:53:37;11.00;99.90
66013;DHT22;52783;50.502;8.190;2023-02-23T12:59:04;11.10;99.90
66013;DHT22;52783;50.502;8.190;2023-02-23T13:01:55;11.30;99.90
66013;DHT22;52783;50.502;8.190;2023-02-23T13:18:44;11.90;99.90
66013;DHT22;52783;50.502;8.190;2023-02-23T13:21:15;12.00;99.90
66013;DHT22;52783;50.502;8.190;2023-02-23T13:26:50;11.90;99.90
66013;DHT22;52783;50.502;8.190;2023-02-23T13:29:27;11.90;99.90
66013;DHT22;52783;50.502;8.190;2023-02-23T13:31:57;11.90;99.90
66013;DHT22;52783;50.502;8.190;2023-02-23T13:34:27;12.00;99.90
66013;DHT22;52783;50.502;8.190;2023-02-23T13:36:55;12.00;99.90
66013;DHT22;52783;50.502;8.190;2023-02-23T13:45:11;11.80;99.90
66013;DHT22;52783;50.502;8.190;2023-02-23T13:47:52;11.20;99.90
66013;DHT22;52783;50.502;8.190;2023-02-23T13:50:53;11.00;99.90
66013;DHT22;52783;50.502;8.190;2023-02-23T13:53:44;10.90;99.90
66013;DHT22;52783;50.502;8.190;2023-02-23T13:56:25;10.80;99.90
66013;DHT22;52783;50.502;8.190;2023-02-23T13:58:58;10.80;99.90
66013;DHT22;52783;50.502;8.190;2023-02-23T14:01:38;10.70;99.90
66013;DHT22;52783;50.502;8.190;2023-02-23T14:04:20;10.90;99.90
66013;DHT22;52783;50.502;8.190;2023-02-23T14:06:56;11.20;99.90
66013;DHT22;52783;50.502;8.190;2023-02-23T14:09:29;11.20;99.90
66013;DHT22;52783;50.502;8.190;2023-02-23T14:20:04;11.80;99.90
66013;DHT22;52783;50.502;8.190;2023-02-23T14:22:33;11.70;99.90
66013;DHT22;52783;50.502;8.190;2023-02-23T14:28:00;11.50;99.90
66013;DHT22;52783;50.502;8.190;2023-02-23T14:30:42;11.50;99.90
66013;DHT22;52783;50.502;8.190;2023-02-23T14:33:36;11.40;99.90
66013;DHT22;52783;50.502;8.190;2023-02-23T14:44:25;10.80;99.90
66013;DHT22;52783;50.502;8.190;2023-02-23T14:47:20;10.70;99.90
66013;DHT22;52783;50.502;8.190;2023-02-23T14:49:58;10.40;99.90
66013;DHT22;52783;50.502;8.190;2023-02-23T14:52:31;10.30;99.90
66013;DHT22;52783;50.502;8.190;2023-02-23T14:57:35;10.00;99.90
66013;DHT22;52783;50.502;8.190;2023-02-23T15:00:28;9.80;99.90
66013;DHT22;52783;50.502;8.190;2023-02-23T15:05:46;9.90;99.90
66013;DHT22;52783;50.502;8.190;2023-02-23T15:08:15;9.90;99.90
66013;DHT22;52783;50.502;8.190;2023-02-23T15:10:47;10.10;99.90
66013;DHT22;52783;50.502;8.190;2023-02-23T15:13:28;10.00;99.90
66013;DHT22;52783;50.502;8.190;2023-02-23T15:15:56;10.00;99.90
66013;DHT22;52783;50.502;8.190;2023-02-23T15:21:55;9.90;99.90
66013;DHT22;52783;50.502;8.190;2023-02-23T15:24:26;9.90;99.90
66013;DHT22;52783;50.502;8.190;2023-02-23T15:26:54;9.80;99.90
66013;DHT22;52783;50.502;8.190;2023-02-23T15:29:29;9.80;99.90
66013;DHT22;52783;50.502;8.190;2023-02-23T15:31:54;9.90;99.90
66013;DHT22;52783;50.502;8.190;2023-02-23T15:34:25;10.00;99.90
66013;DHT22;52783;50.502;8.190;2023-02-23T15:37:00;9.80;99.90
66013;DHT22;52783;50.502;8.190;2023-02-23T15:39:37;9.70;99.90
66013;DHT22;52783;50.502;8.190;2023-02-23T15:42:05;9.60;99.90
66013;DHT22;52783;50.502;8.190;2023-02-23T15:44:32;9.70;99.90
66013;DHT22;52783;50.502;8.190;2023-02-23T15:47:02;9.70;99.90
66013;DHT22;52783;50.502;8.190;2023-02-23T15:49:30;9.70;99.90
66013;DHT22;52783;50.502;8.190;2023-02-23T15:52:00;9.70;99.90
66013;DHT22;52783;50.502;8.190;2023-02-23T15:54:29;9.70;99.90
66013;DHT22;52783;50.502;8.190;2023-02-23T15:57:00;9.60;99.90
66013;DHT22;52783;50.502;8.190;2023-02-23T15:59:34;9.70;99.90
66013;DHT22;52783;50.502;8.190;2023-02-23T16:02:01;9.70;99.90
66013;DHT22;52783;50.502;8.190;2023-02-23T16:04:32;9.70;99.90
66013;DHT22;52783;50.502;8.190;2023-02-23T16:07:22;9.70;99.90
66013;DHT22;52783;50.502;8.190;2023-02-23T16:10:38;9.70;99.90
66013;DHT22;52783;50.502;8.190;2023-02-23T16:12:36;9.60;99.90
66013;DHT22;52783;50.502;8.190;2023-02-23T16:18:33;9.40;99.90
66013;DHT22;52783;50.502;8.190;2023-02-23T16:20:38;9.40;99.90
66013;DHT22;52783;50.502;8.190;2023-02-23T16:23:11;9.40;99.90
66013;DHT22;52783;50.502;8.190;2023-02-23T16:25:41;9.40;99.90
66013;DHT22;52783;50.502;8.190;2023-02-23T16:28:16;9.40;99.90
66013;DHT22;52783;50.502;8.190;2023-02-23T16:30:52;9.40;99.90
66013;DHT22;52783;50.502;8.190;2023-02-23T16:33:29;9.40;99.90
66013;DHT22;52783;50.502;8.190;2023-02-23T16:38:56;9.10;99.90
66013;DHT22;52783;50.502;8.190;2023-02-23T16:41:22;9.10;99.90
66013;DHT22;52783;50.502;8.190;2023-02-23T16:43:49;9.20;99.90
66013;DHT22;52783;50.502;8.190;2023-02-23T16:46:16;9.20;99.90
66013;DHT22;52783;50.502;8.190;2023-02-23T16:48:41;9.30;99.90
66013;DHT22;52783;50.502;8.190;2023-02-23T16:51:14;9.30;99.90
66013;DHT22;52783;50.502;8.190;2023-02-23T16:53:41;9.30;99.90
66013;DHT22;52783;50.502;8.190;2023-02-23T16:56:07;9.20;99.90
66013;DHT22;52783;50.502;8.190;2023-02-23T16:58:37;9.30;99.90
66013;DHT22;52783;50.502;8.190;2023-02-23T17:01:04;9.20;99.90
66013;DHT22;52783;50.502;8.190;2023-02-23T17:03:29;9.20;99.90
66013;DHT22;52783;50.502;8.190;2023-02-23T17:05:55;9.10;99.90
66013;DHT22;52783;50.502;8.190;2023-02-23T17:08:21;9.00;99.90
66013;DHT22;52783;50.502;8.190;2023-02-23T17:10:48;9.10;99.90
66013;DHT22;52783;50.502;8.190;2023-02-23T17:15:42;9.10;99.90
66013;DHT22;52783;50.502;8.190;2023-02-23T17:18:15;9.00;99.90
66013;DHT22;52783;50.502;8.190;2023-02-23T17:20:41;9.00;99.90
66013;DHT22;52783;50.502;8.190;2023-02-23T17:23:06;9.00;99.90
66013;DHT22;52783;50.502;8.190;2023-02-23T17:25:32;8.90;99.90
66013;DHT22;52783;50.502;8.190;2023-02-23T17:27:59;8.90;99.90
66013;DHT22;52783;50.502;8.190;2023-02-23T17:30:26;8.90;99.90
66013;DHT22;52783;50.502;8.190;2023-02-23T17:32:53;9.00;99.90
66013;DHT22;52783;50.502;8.190;2023-02-23T17:35:19;8.90;99.90
66013;DHT22;52783;50.502;8.190;2023-02-23T17:37:45;8.90;99.90
66013;DHT22;52783;50.502;8.190;2023-02-23T17:40:14;8.90;99.90
66013;DHT22;52783;50.502;8.190;2023-02-23T17:42:40;8.90;99.90
66013;DHT22;52783;50.502;8.190;2023-02-23T17:45:06;9.00;99.90
66013;DHT22;52783;50.502;8.190;2023-02-23T17:47:33;9.00;99.90
66013;DHT22;52783;50.502;8.190;2023-02-23T17:50:00;8.90;99.90
66013;DHT22;52783;50.502;8.190;2023-02-23T17:52:26;9.00;99.90
66013;DHT22;52783;50.502;8.190;2023-02-23T17:54:54;8.90;99.90
66013;DHT22;52783;50.502;8.190;2023-02-23T17:57:24;8.90;99.90
66013;DHT22;52783;50.502;8.190;2023-02-23T17:59:50;8.90;99.90
66013;DHT22;52783;50.502;8.190;2023-02-23T18:02:17;8.90;99.90
66013;DHT22;52783;50.502;8.190;2023-02-23T18:04:45;8.90;99.90
66013;DHT22;52783;50.502;8.190;2023-02-23T18:07:11;8.90;99.90
66013;DHT22;52783;50.502;8.190;2023-02-23T18:09:37;9.00;99.90
66013;DHT22;52783;50.502;8.190;2023-02-23T18:12:03;9.00;99.90